createdAt,value
2018-09-12T00:04:15.493Z,2.78
2018-09-12T00:10:10.470Z,2.9
2018-09-12T00:16:05.463Z,2.76
2018-09-12T00:22:00.464Z,2.7
2018-09-12T00:27:55.455Z,3.19
2018-09-12T00:33:50.452Z,3.63
2018-09-12T00:39:45.412Z,3.11
2018-09-12T00:45:40.437Z,2.49
2018-09-12T00:51:35.447Z,3.07
2018-09-12T00:57:30.444Z,2.82
2018-09-12T01:03:25.478Z,2.7
2018-09-12T01:09:20.471Z,3.64
2018-09-12T01:15:15.472Z,3.3
2018-09-12T01:21:10.465Z,3.34
2018-09-12T01:27:05.458Z,3.13
2018-09-12T01:33:00.472Z,2.81
2018-09-12T01:38:55.460Z,2.89
2018-09-12T01:44:50.454Z,3.03
2018-09-12T01:50:45.458Z,3.38
2018-09-12T01:56:40.478Z,3.39
2018-09-12T02:02:35.448Z,3.38
2018-09-12T02:08:30.458Z,2.87
2018-09-12T02:14:25.495Z,2.78
2018-09-12T02:20:20.457Z,3.4
2018-09-12T02:26:16.185Z,2.96
2018-09-12T02:32:10.478Z,2.9
2018-09-12T02:38:05.469Z,3.03
2018-09-12T02:44:00.493Z,3.54
2018-09-12T02:49:55.463Z,2.9
2018-09-12T02:55:50.497Z,3.1
2018-09-12T03:01:45.460Z,2.86
2018-09-12T03:07:40.512Z,2.66
2018-09-12T03:13:35.465Z,3.01
2018-09-12T03:19:30.479Z,3.16
2018-09-12T03:25:25.499Z,3.07
2018-09-12T03:31:20.508Z,2.88
2018-09-12T03:37:15.476Z,2.96
2018-09-12T03:43:10.517Z,2.73
2018-09-12T03:49:05.525Z,2.98
2018-09-12T03:55:00.489Z,3.26
2018-09-12T04:00:55.483Z,3.25
2018-09-12T04:06:50.509Z,2.79
2018-09-12T04:12:45.593Z,3.52
2018-09-12T04:18:40.486Z,2.92
2018-09-12T04:24:35.569Z,3.11
2018-09-12T04:30:30.471Z,2.69
2018-09-12T04:36:25.513Z,2.51
2018-09-12T04:42:20.518Z,2.93
2018-09-12T04:48:15.537Z,3.01
2018-09-12T04:54:10.505Z,2.8
2018-09-12T05:00:05.508Z,4.61
2018-09-12T05:06:00.501Z,3.63
2018-09-12T05:11:55.500Z,2.76
2018-09-12T05:17:50.477Z,3.55
2018-09-12T05:23:45.506Z,4.48
2018-09-12T05:29:40.537Z,3.63
2018-09-12T05:35:35.487Z,3.57
2018-09-12T05:41:30.491Z,3.98
2018-09-12T05:47:25.492Z,3.67
2018-09-12T05:53:20.518Z,3.82
2018-09-12T05:59:15.533Z,3.23
2018-09-12T06:05:10.511Z,3.71
2018-09-12T06:11:05.511Z,3.98
2018-09-12T06:17:00.501Z,4.51
2018-09-12T06:22:55.515Z,5.02
2018-09-12T06:28:50.520Z,4.1
2018-09-12T06:34:45.513Z,3.63
2018-09-12T06:40:40.488Z,4.19
2018-09-12T06:46:35.507Z,3.83
2018-09-12T06:52:30.545Z,3.93
2018-09-12T06:58:25.513Z,5.53
2018-09-12T07:04:20.524Z,6.16
2018-09-12T07:10:15.501Z,7.89
2018-09-12T07:16:10.529Z,11.28
2018-09-12T07:22:05.491Z,9.03
2018-09-12T07:28:00.550Z,7.98
2018-09-12T07:33:55.512Z,7.03
2018-09-12T07:39:50.531Z,6.6
2018-09-12T07:45:45.556Z,7.02
2018-09-12T07:51:40.503Z,6.39
2018-09-12T07:57:35.559Z,6.57
2018-09-12T08:03:30.561Z,6.86
2018-09-12T08:09:25.539Z,4.27
2018-09-12T08:15:20.558Z,4.35
2018-09-12T08:21:15.519Z,4.44
2018-09-12T08:27:10.538Z,4.8
2018-09-12T08:33:05.562Z,5.95
2018-09-12T08:39:00.528Z,4.83
2018-09-12T08:44:55.601Z,5.05
2018-09-12T08:50:50.555Z,4.51
2018-09-12T08:56:45.579Z,5.13
2018-09-12T09:02:40.531Z,4.5
2018-09-12T09:08:35.579Z,4.18
2018-09-12T09:14:30.552Z,5.48
2018-09-12T09:20:25.579Z,5.39
2018-09-12T09:26:20.556Z,5.24
2018-09-12T09:32:15.599Z,5.37
2018-09-12T09:38:10.580Z,4.92
2018-09-12T09:44:05.581Z,4.42
2018-09-12T09:50:00.585Z,4.17
2018-09-12T09:55:55.567Z,4.44
2018-09-12T10:01:50.646Z,4.31
2018-09-12T10:07:45.603Z,4.46
2018-09-12T10:13:40.577Z,4.6
2018-09-12T10:19:35.595Z,4.67
2018-09-12T10:25:30.590Z,5.01
2018-09-12T10:31:25.601Z,3.98
2018-09-12T10:37:20.568Z,4.43
2018-09-12T10:43:15.580Z,4.71
2018-09-12T10:49:10.622Z,3.64
2018-09-12T10:55:05.626Z,4.4
2018-09-12T11:01:00.612Z,4.41
2018-09-12T11:06:55.616Z,3.64
2018-09-12T11:12:50.641Z,3.62
2018-09-12T11:18:45.618Z,3.47
2018-09-12T11:24:40.623Z,3.86
2018-09-12T11:30:35.599Z,3.93
2018-09-12T11:36:30.614Z,3.75
2018-09-12T11:42:25.595Z,3.66
2018-09-12T11:48:20.617Z,3.62
2018-09-12T11:54:15.634Z,3.22
2018-09-12T12:00:10.638Z,3.18
2018-09-12T12:06:05.647Z,2.73
2018-09-12T12:12:00.649Z,3.04
2018-09-12T12:17:55.622Z,3.2
2018-09-12T12:23:50.618Z,3.23
2018-09-12T12:29:45.649Z,2.85
2018-09-12T12:35:40.673Z,3.44
2018-09-12T12:41:35.631Z,3.9
2018-09-12T12:47:30.642Z,3.64
2018-09-12T12:53:25.676Z,2.78
2018-09-12T12:59:20.678Z,2.39
2018-09-12T13:05:15.654Z,2.53
2018-09-12T13:11:10.649Z,1.88
2018-09-12T13:17:05.649Z,2.2
2018-09-12T13:23:00.696Z,1.81
2018-09-12T13:28:55.701Z,2.15
2018-09-12T13:34:50.671Z,1.93
2018-09-12T13:40:45.744Z,1.98
2018-09-12T13:46:40.776Z,1.94
2018-09-12T13:52:35.694Z,1.8
2018-09-12T13:58:30.747Z,1.99
2018-09-12T14:04:25.701Z,1.97
2018-09-12T14:10:20.695Z,2.66
2018-09-12T14:16:15.665Z,2.58
2018-09-12T14:22:10.705Z,2.31
2018-09-12T14:28:05.682Z,2.96
2018-09-12T14:34:00.698Z,3.32
2018-09-12T14:39:55.679Z,3.38
2018-09-12T14:45:50.680Z,2.57
2018-09-12T14:51:45.694Z,2.63
2018-09-12T14:57:40.779Z,2.81
2018-09-12T15:03:35.716Z,2.15
2018-09-12T15:09:30.724Z,2.81
2018-09-12T15:15:25.701Z,2.17
2018-09-12T15:21:20.706Z,2.79
2018-09-12T15:27:15.737Z,2.05
2018-09-12T15:33:10.715Z,1.82
2018-09-12T15:39:05.705Z,1.95
2018-09-12T15:45:00.766Z,2.13
2018-09-12T15:50:55.741Z,1.9
2018-09-12T15:56:50.725Z,1.93
2018-09-12T16:02:45.866Z,2
2018-09-12T16:08:40.738Z,2.15
2018-09-12T16:14:35.727Z,2.6
2018-09-12T16:20:30.735Z,2.46
2018-09-12T16:26:25.747Z,2.17
2018-09-12T16:32:20.740Z,2.75
2018-09-12T16:38:15.754Z,2.53
2018-09-12T16:44:10.813Z,2.36
2018-09-12T16:50:05.753Z,2.34
2018-09-12T16:56:00.776Z,1.91
2018-09-12T17:01:55.765Z,2.96
2018-09-12T17:07:50.772Z,2.26
2018-09-12T17:13:45.763Z,2.5
2018-09-12T17:19:40.788Z,2.49
2018-09-12T17:25:35.754Z,2.57
2018-09-12T17:31:30.795Z,2.48
2018-09-12T17:37:25.853Z,2.25
2018-09-12T17:43:20.745Z,2.07
2018-09-12T17:49:15.854Z,2.26
2018-09-12T17:55:10.806Z,2.92
2018-09-12T18:01:05.777Z,2.75
2018-09-12T18:07:00.803Z,2.25
2018-09-12T18:12:55.797Z,2.11
2018-09-12T18:18:50.797Z,2.31
2018-09-12T18:24:45.884Z,2.02
2018-09-12T18:30:40.826Z,1.8
2018-09-12T18:36:35.823Z,2.01
2018-09-12T18:42:30.789Z,2.23
2018-09-12T18:48:25.809Z,1.98
2018-09-12T18:54:20.838Z,1.78
2018-09-12T19:00:15.839Z,1.78
2018-09-12T19:06:10.790Z,1.86
2018-09-12T19:12:05.833Z,2.08
2018-09-12T19:18:00.828Z,1.86
2018-09-12T19:23:55.814Z,1.93
2018-09-12T19:29:50.811Z,1.8
2018-09-12T19:35:45.822Z,1.89
2018-09-12T19:41:40.827Z,2.45
2018-09-12T19:47:35.812Z,2.25
2018-09-12T19:53:30.806Z,2.21
2018-09-12T19:59:25.842Z,2.45
2018-09-12T20:05:20.845Z,2.14
2018-09-12T20:11:15.841Z,2.89
2018-09-12T20:17:10.842Z,2.73
2018-09-12T20:23:05.834Z,2.85
2018-09-12T20:29:00.844Z,3.04
2018-09-12T20:34:55.847Z,3.13
2018-09-12T20:40:50.833Z,2.79
2018-09-12T20:46:45.846Z,2.76
2018-09-12T20:52:40.887Z,3.14
2018-09-12T20:58:35.844Z,3.28
2018-09-12T21:04:30.870Z,3.02
2018-09-12T21:10:25.848Z,2.96
2018-09-12T21:16:20.838Z,2.6
2018-09-12T21:22:15.856Z,2.68
2018-09-12T21:28:10.847Z,3.25
2018-09-12T21:34:05.892Z,3.25
2018-09-12T21:40:00.849Z,3.33
2018-09-12T21:45:55.859Z,3.78
2018-09-12T21:51:50.884Z,3.22
2018-09-12T21:57:45.883Z,2.93
2018-09-12T22:03:40.887Z,3.43
2018-09-12T22:09:35.870Z,3.28
2018-09-12T22:15:30.864Z,3.12
2018-09-12T22:21:25.860Z,2.86
2018-09-12T22:27:20.852Z,2.86
2018-09-12T22:33:15.855Z,3.2
2018-09-12T22:39:10.875Z,3.15
2018-09-12T22:45:05.862Z,2.92
2018-09-12T22:51:00.901Z,3.65
2018-09-12T22:56:55.892Z,3.39
2018-09-12T23:02:50.904Z,3.07
2018-09-12T23:08:45.875Z,3.08
2018-09-12T23:14:40.860Z,3.15
2018-09-12T23:20:35.893Z,2.87
2018-09-12T23:26:30.891Z,2.93
2018-09-12T23:32:25.867Z,3.23
2018-09-12T23:38:20.876Z,3.1
2018-09-12T23:44:15.889Z,3.1
2018-09-12T23:50:10.905Z,3.16
2018-09-12T23:56:05.905Z,3.41
